Amargosa Valley, Nevada Weather observations

Data are for observation ending at time listed.
 Day   Time    Ave.   Ave.  Ave.  Vector   Max.   Stn.    Total    Solar   Ave.  
  of    of     Air    Rel.  Wind   Wind    Wind   Baro.  Precip.   Rad.    Soil  
Year   Day     Temp.  Hum.  Speed  Dir.    Gust   Pres.                    Temp. 
2020   (PST)    F      %     mph   deg.    mph     mb.     in.     W/m2     F   
------------------------------------------------------------------------------
 266   16:20   94.4     9   11.1   179     15.7   928.0    0.00      51    89.5
 266   16:30   94.1     9   10.1   161     14.8   928.1    0.00      64    89.6
 266   16:40   93.8     9   11.5   164     16.3   928.1    0.00      95    89.7
 266   16:50   93.5     9   11.4   164     16.4   928.0    0.00      44    89.8
 266   17:00   93.2     9   10.8   163     15.9   927.9    0.00      33    89.9
 266   17:10   92.6    10   10.7   167     16.7   928.0    0.00      28    90.0
 266   17:20   92.2    10    9.8   163     15.1   928.0    0.00      22    90.1
 266   17:30   91.3    10    7.6   162     10.7   928.0    0.00      13    90.1
 266   17:40   90.4    10    7.3   158     11.6   928.0    0.00       7    90.2
 266   17:50   89.5    11    7.3   158     10.3   928.0    0.00       3    90.2
 266   18:00   88.8    11    6.9   156      9.9   928.0    0.00       2    90.3
 266   18:10   87.9    11    6.2   156      9.1   927.9    0.00       0    90.3
 266   18:20   87.1    11    6.6   154      8.9   928.0    0.00       0    90.3
 266   18:30   86.1    11    5.9   150      8.0   928.1    0.00       0    90.3
 266   18:40   84.9    11    5.0   132      6.9   927.9    0.00       0    90.3
 266   18:50   83.4    12    4.6   116      5.9   928.4    0.00       0    90.4
 266   19:00   82.3    12    4.6   107      6.6   928.3    0.00       0    90.4
 266   19:10   81.2    12    3.7   110      4.8   928.4    0.00       0    90.4
 266   19:20   80.1    13    4.2   108      5.6   928.4    0.00       0    90.4
 266   19:30   79.8    13    4.1   124      5.6   928.5    0.00       0    90.4
 266   19:40   79.6    12    3.9   115      5.4   928.6    0.00       0    90.3
 266   19:50   78.6    13    3.8   113      5.3   928.6    0.00       0    90.3
 266   20:00   78.0    13    4.3   110      5.4   928.8    0.00       0    90.3
 266   20:10   77.9    13    4.2   111      5.5   928.9    0.00       0    90.3
 266   20:20   77.6    13    4.4   108      5.8   928.9    0.00       0    90.2
 266   20:30   77.4    13    4.9    97      6.6   929.0    0.00       0    90.2
 266   20:40   77.8    14    6.1    95      7.6   928.9    0.00       0    90.1
 266   20:50   78.4    13    6.0    98      7.6   929.0    0.00       0    90.1
 266   21:00   78.3    14    5.8    94      7.6   929.1    0.00       0    90.0
 266   21:10   77.9    14    6.7    84      7.8   929.2    0.00       0    89.9
 266   21:20   77.9    14    6.4    88      8.5   929.2    0.00       0    89.9
 266   21:30   78.1    14    5.9    88      7.9   929.2    0.00       0    89.8
 266   21:40   76.6    15    6.9    82      8.6   929.2    0.00       0    89.8
 266   21:50   76.7    15    7.7    82      9.9   929.2    0.00       0    89.7
 266   22:00   75.7    16    7.8    81      9.4   929.2    0.00       0    89.6
 266   22:10   75.6    16    7.6    81      9.0   929.2    0.00       0    89.6
 266   22:20   75.7    16    6.6    79      8.6   929.3    0.00       0    89.5
 266   22:30   75.5    16    6.6    81      8.9   929.3    0.00       0    89.4
 266   22:40   76.2    16    3.1    75      7.7   929.3    0.00       0    89.4
 266   22:50   74.9    17    0.3    36      3.1   929.5    0.00       0    89.3
 266   23:00   73.7    18    0.4   106      2.3   929.4    0.00       0    89.2
 266   23:10   73.5    18    0.0   175      0.4   929.5    0.00       0    89.2
 266   23:20   73.3    18    0.0     0      0.0   929.6    0.00       0    89.1
 266   23:30   69.9    19    0.1   334      1.1   929.6    0.00       0    89.0
 266   23:40   68.3    19    0.1   343      0.9   929.7    0.00       0    89.0
 266   23:50   68.1    19    0.6    17      2.2   929.6    0.00       0    88.9
 267    0:00   68.9    19    0.4    16      1.5   929.6    0.00       0    88.8
 267    0:10   68.3    19    1.5    25      3.9   929.7    0.00       0    88.7
 267    0:20   68.0    19    1.9    24      5.0   929.6    0.00       0    88.6
 267    0:30   67.8    20    2.4    27      4.7   929.7    0.00       0    88.5
 267    0:40   68.2    19    2.4    28      5.3   929.7    0.00       0    88.4
 267    0:50   67.7    20    1.4    24      4.2   929.9    0.00       0    88.4
 267    1:00   67.9    20    1.4    21      4.3   929.9    0.00       0    88.3
 267    1:10   67.6    20    0.2     9      1.6   929.9    0.00       0    88.2
 267    1:20   67.0    20    0.2   333      1.2   930.0    0.00       0    88.1
 267    1:30   66.4    21    0.6   328      1.5   930.1    0.00       0    88.0
 267    1:40   65.7    22    0.5   327      1.8   930.1    0.00       0    87.9
 267    1:50   65.3    21    0.3   331      1.4   930.1    0.00       0    87.9
 267    2:00   64.9    22    0.1   331      0.8   929.9    0.00       0    87.8
 267    2:10   64.5    22    1.2   322      2.3   930.1    0.00       0    87.7
 267    2:20   63.9    22    1.5   321      3.7   930.0    0.00       0    87.6
 267    2:30   63.8    22    1.4   319      3.5   930.0    0.00       0    87.5
 267    2:40   63.3    22    1.4   321      3.1   930.2    0.00       0    87.4
 267    2:50   62.2    22    0.9   320      2.7   930.3    0.00       0    87.3
 267    3:00   61.3    22    0.6   324      1.6   930.1    0.00       0    87.3
 267    3:10   61.5    22    0.6   327      2.3   930.2    0.00       0    87.2
 267    3:20   61.8    23    0.7   327      1.5   930.2    0.00       0    87.1
 267    3:30   62.0    23    0.8   326      2.6   930.3    0.00       0    87.0
 267    3:40   62.0    24    2.4   317      4.5   930.4    0.00       0    86.9
 267    3:50   62.5    23    1.9   318      3.7   930.6    0.00       0    86.8
 267    4:00   62.4    24    0.7   323      2.1   930.7    0.00       0    86.7
 267    4:10   61.7    24    0.8   327      1.5   930.8    0.00       0    86.6
 267    4:20   61.4    24    0.3   332      1.2   930.6    0.00       0    86.5
 267    4:30   60.7    24    2.0   312      4.8   930.9    0.00       0    86.4
 267    4:40   61.0    24    1.9   318      4.0   930.9    0.00       0    86.3
 267    4:50   61.0    24    1.1   321      3.4   930.9    0.00       0    86.2
 267    5:00   60.4    24    1.1   318      2.6   931.0    0.00       0    86.1
 267    5:10   61.0    25    0.4   323      1.5   931.1    0.00       0    86.1
 267    5:20   61.5    24    0.7   325      1.9   931.2    0.00       0    85.9
 267    5:30   61.7    24    0.2   326      1.4   931.2    0.00       0    85.9
 267    5:40   62.2    25    0.1   341      1.0   931.3    0.00       3    85.8
 267    5:50   62.1    25    0.1   327      0.8   931.4    0.00       8    85.7
 267    6:00   62.2    25    0.3   325      1.2   931.6    0.00      20    85.6
 267    6:10   62.3    25    0.6   323      1.4   931.6    0.00      29    85.4
 267    6:20   62.1    26    0.4   325      2.5   931.8    0.00      46    85.3
 267    6:30   61.8    26    1.5   321      2.9   931.9    0.00      76    85.2
 267    6:40   62.4    26    1.0   318      2.6   932.2    0.00     119    85.1
 267    6:50   64.0    25    0.7   320      2.8   932.3    0.00     154    85.0
 267    7:00   66.2    23    0.7   317      2.3   932.4    0.00     190    84.9
 267    7:10   68.0    23    0.6   316      1.5   932.5    0.00     230    84.8
 267    7:20   68.9    22    1.1   318      2.3   932.7    0.00     265    84.7
 267    7:30   70.5    21    0.8   323      2.2   932.8    0.00     300    84.6
 267    7:40   73.1    19    0.5   319      1.7   932.9    0.00     330    84.5
 267    7:50   74.3    19    0.6   318      1.7   933.0    0.00     359    84.4
 267    8:00   75.4    18    0.9   351      2.5   933.1    0.00     396    84.3
 267    8:10   77.2    17    0.4   336      2.3   933.2    0.00     424    84.2
 267    8:20   78.2    16    0.7   331      1.7   933.3    0.00     457    84.1
 267    8:30   80.0    15    0.4   312      2.0   933.5    0.00     488    84.0
 267    8:40   79.9    16    0.6   217      1.6   933.5    0.00     518    84.0
 267    8:50   80.8    15    0.5    69      2.1   933.6    0.00     552    83.9
 267    9:00   82.0    15    0.5   185      2.0   933.6    0.00     574    83.9
 267    9:10   82.4    15    0.8   346      1.9   933.8    0.00     601    83.8
 267    9:20   82.1    15    0.9    80      2.5   933.8    0.00     491    83.8
 267    9:30   82.7    15    1.3   240      3.7   933.8    0.00     244    83.7
 267    9:40   83.5    14    0.7   228      2.2   933.7    0.00     369    83.8
 267    9:50   83.9    14    1.3   225      3.8   933.7    0.00     499    83.7
 267   10:00   84.9    14    0.6   245      2.8   933.6    0.00     714    83.7
 267   10:10   85.6    13    1.5   133      3.4   933.6    0.00     735    83.7
 267   10:20   85.9    14    2.4   203      4.4   933.6    0.00     749    83.7
 267   10:30   87.3    13    0.8   115      2.6   933.5    0.00     767    83.6
 267   10:40   87.6    13    2.6   206      5.8   933.5    0.00     775    83.7
 267   10:50   87.3    13    2.4   142      5.8   933.5    0.00     789    83.8
 267   11:00   88.2    13    2.5   216      5.1   933.3    0.00     796    83.9
 267   11:10   89.0    13    1.8   236      5.7   933.2    0.00     804    83.9
 267   11:20   90.0    12    2.6   191      5.9   933.2    0.00     809    84.0
 267   11:30   90.4    12    1.8   204      6.3   933.2    0.00     813    84.1
 267   11:40   90.1    12    2.9   157      6.6   933.1    0.00     814    84.1
 267   11:50   90.4    12    4.3   172      7.7   933.0    0.00     814    84.2
 267   12:00   91.1    12    2.7   161      7.3   932.9    0.00     815    84.3
 267   12:10   91.4    11    3.5   157      8.6   932.7    0.00     811    84.4
 267   12:20   91.5    11    3.6   172      7.5   932.6    0.00     804    84.5
 267   12:30   92.2    11    3.5   219      8.1   932.4    0.00     796    84.6
 267   12:40   93.1    11    2.8   149      8.6   932.3    0.00     789    84.8
 267   12:50   93.1    11    4.6   124      8.7   932.2    0.00     779    85.0
 267   13:00   93.4    11    4.4   124      8.5   932.1    0.00     767    85.2
 267   13:10   93.8    11    4.2   150      8.4   931.9    0.00     753    85.4
 267   13:20   93.7    11    4.8   158      9.1   931.8    0.00     738    85.6
 267   13:30   94.6    10    4.3   192      9.8   931.7    0.00     720    85.8
 267   13:40   94.3    10    5.8   181     11.6   931.4    0.00     700    86.0
 267   13:50   94.4    10    7.0   150     12.6   931.4    0.00     681    86.2
 267   14:00   94.8    10    4.7   185     10.6   931.2    0.00     657    86.4
 267   14:10   94.7    10    6.8   182     11.1   931.1    0.00     631    86.7
 267   14:20   94.2    10    5.0   177     11.6   931.0    0.00     604    86.9
 267   14:30   94.9    10    6.1   209     12.1   930.8    0.00     574    87.2
 267   14:40   94.4    10    4.8   231     10.0   930.7    0.00     548    87.4
 267   14:50   94.7    10    5.6   177     12.6   930.7    0.00     519    87.6
 267   15:00   94.7    10    5.0   195      8.7   930.5    0.00     487    87.8
 267   15:10   94.5    10    5.6   201     10.2   930.3    0.00     455    88.1
 267   15:20   95.0    10    1.9   240      7.2   930.2    0.00     419    88.3
 267   15:30   95.3    10    2.4   249      7.7   930.1    0.00     251    88.5
 267   15:40   94.9    10    4.3   203      7.8   930.0    0.00     114    88.7
 267   15:50   94.9    10    2.4   229      6.1   929.8    0.00      73    88.9
 267   16:00   94.9    10    4.3   189      8.5   929.7    0.00      68    89.1
 267   16:10   94.5    10    5.1   182     10.2   929.8    0.00      63    89.3

Return to Amargosa Valley, Nevada graphs page.


Western Regional Climate Center,wrcc@dri.edu